sensor_id;sensor_type;location;lat;lon;timestamp;pressure;altitude;pressure_sealevel;temperature;humidity
70458;BME280;57919;56.194;95.716;2022-12-07T00:07:17;100616.66;;;-11.39;66.02
70458;BME280;57919;56.194;95.716;2022-12-07T00:17:19;100620.19;;;-11.37;65.74
70458;BME280;57919;56.194;95.716;2022-12-07T00:27:21;100603.31;;;-11.53;65.29
70458;BME280;57919;56.194;95.716;2022-12-07T00:37:23;100623.00;;;-11.28;65.04
70458;BME280;57919;56.194;95.716;2022-12-07T00:47:25;100627.25;;;-11.33;65.08
70458;BME280;57919;56.194;95.716;2022-12-07T00:57:28;100595.81;;;-11.38;64.46
70458;BME280;57919;56.194;95.716;2022-12-07T01:07:31;100607.19;;;-11.36;64.44
70458;BME280;57919;56.194;95.716;2022-12-07T01:17:33;100606.28;;;-11.36;64.57
70458;BME280;57919;56.194;95.716;2022-12-07T01:27:36;100646.06;;;-11.09;63.63
70458;BME280;57919;56.194;95.716;2022-12-07T01:37:38;100601.91;;;-11.37;64.19
70458;BME280;57919;56.194;95.716;2022-12-07T01:47:41;100635.53;;;-11.12;64.76
70458;BME280;57919;56.194;95.716;2022-12-07T01:57:48;100632.69;;;-11.23;63.69
70458;BME280;57919;56.194;95.716;2022-12-07T02:07:53;100651.28;;;-11.09;63.61
70458;BME280;57919;56.194;95.716;2022-12-07T02:48:39;100633.56;;;-9.28;57.98
70458;BME280;57919;56.194;95.716;2022-12-07T02:59:07;100641.50;;;-9.23;57.62
70458;BME280;57919;56.194;95.716;2022-12-07T03:09:37;100639.56;;;-9.36;57.18
70458;BME280;57919;56.194;95.716;2022-12-07T03:19:43;100634.22;;;-9.42;57.34
70458;BME280;57919;56.194;95.716;2022-12-07T03:29:54;100636.63;;;-9.58;57.22
70458;BME280;57919;56.194;95.716;2022-12-07T03:40:21;100619.91;;;-9.66;57.54
70458;BME280;57919;56.194;95.716;2022-12-07T03:50:31;100634.63;;;-9.72;58.00
70458;BME280;57919;56.194;95.716;2022-12-07T04:00:38;100635.41;;;-9.78;58.09
70458;BME280;57919;56.194;95.716;2022-12-07T04:10:39;100638.25;;;-9.66;57.70
70458;BME280;57919;56.194;95.716;2022-12-07T04:20:41;100644.44;;;-9.61;57.27
70458;BME280;57919;56.194;95.716;2022-12-07T04:30:45;100640.00;;;-9.04;57.15
70458;BME280;57919;56.194;95.716;2022-12-07T04:40:47;100634.03;;;-8.94;56.40
70458;BME280;57919;56.194;95.716;2022-12-07T04:50:49;100658.31;;;-9.07;57.01
70458;BME280;57919;56.194;95.716;2022-12-07T05:00:54;100652.03;;;-9.19;57.06
70458;BME280;57919;56.194;95.716;2022-12-07T05:10:56;100652.31;;;-8.99;55.96
70458;BME280;57919;56.194;95.716;2022-12-07T05:20:58;100637.28;;;-9.12;56.48
70458;BME280;57919;56.194;95.716;2022-12-07T05:31:00;100631.22;;;-9.08;56.47
70458;BME280;57919;56.194;95.716;2022-12-07T05:41:06;100632.94;;;-9.10;56.09
70458;BME280;57919;56.194;95.716;2022-12-07T05:51:08;100637.50;;;-8.97;56.61
70458;BME280;57919;56.194;95.716;2022-12-07T06:01:11;100637.75;;;-8.77;56.57
70458;BME280;57919;56.194;95.716;2022-12-07T06:11:13;100610.53;;;-8.87;56.42
70458;BME280;57919;56.194;95.716;2022-12-07T06:21:33;100626.56;;;-8.61;56.75
70458;BME280;57919;56.194;95.716;2022-12-07T06:31:35;100638.75;;;-8.64;56.43
70458;BME280;57919;56.194;95.716;2022-12-07T06:41:38;100644.84;;;-8.67;57.25
70458;BME280;57919;56.194;95.716;2022-12-07T06:51:40;100643.81;;;-8.79;57.25
70458;BME280;57919;56.194;95.716;2022-12-07T07:01:43;100640.09;;;-8.97;57.90
70458;BME280;57919;56.194;95.716;2022-12-07T07:11:45;100628.72;;;-8.99;57.74
70458;BME280;57919;56.194;95.716;2022-12-07T07:21:47;100642.66;;;-7.21;57.18
70458;BME280;57919;56.194;95.716;2022-12-07T07:31:49;100635.72;;;-8.19;57.38
70458;BME280;57919;56.194;95.716;2022-12-07T07:41:51;100616.66;;;-8.85;57.97
70458;BME280;57919;56.194;95.716;2022-12-07T07:51:59;100607.81;;;-8.94;58.19
70458;BME280;57919;56.194;95.716;2022-12-07T08:02:02;100627.03;;;-8.94;58.24
70458;BME280;57919;56.194;95.716;2022-12-07T08:12:04;100634.00;;;-8.96;58.85
70458;BME280;57919;56.194;95.716;2022-12-07T08:22:06;100599.66;;;-9.17;59.66
70458;BME280;57919;56.194;95.716;2022-12-07T08:32:08;100604.13;;;-9.08;60.00
70458;BME280;57919;56.194;95.716;2022-12-07T08:42:10;100618.41;;;-8.87;59.63
70458;BME280;57919;56.194;95.716;2022-12-07T08:52:12;100622.94;;;-8.73;59.25
70458;BME280;57919;56.194;95.716;2022-12-07T09:02:15;100605.47;;;-8.71;59.68
70458;BME280;57919;56.194;95.716;2022-12-07T09:12:17;100620.25;;;-8.78;58.96
70458;BME280;57919;56.194;95.716;2022-12-07T09:22:18;100643.84;;;-8.78;59.10
70458;BME280;57919;56.194;95.716;2022-12-07T09:32:21;100643.78;;;-8.83;59.56
70458;BME280;57919;56.194;95.716;2022-12-07T09:42:42;100639.16;;;-9.02;60.00
70458;BME280;57919;56.194;95.716;2022-12-07T09:52:47;100640.09;;;-8.97;60.32
70458;BME280;57919;56.194;95.716;2022-12-07T10:02:56;100644.59;;;-8.88;59.96
70458;BME280;57919;56.194;95.716;2022-12-07T10:23:07;100641.16;;;-8.84;59.40
70458;BME280;57919;56.194;95.716;2022-12-07T10:34:00;100654.22;;;-8.86;59.21
70458;BME280;57919;56.194;95.716;2022-12-07T10:43:56;100658.59;;;-8.86;59.86
70458;BME280;57919;56.194;95.716;2022-12-07T11:05:02;100656.94;;;-8.79;59.68
70458;BME280;57919;56.194;95.716;2022-12-07T11:15:21;100646.53;;;-8.73;59.79
70458;BME280;57919;56.194;95.716;2022-12-07T11:25:35;100647.97;;;-8.97;60.07
70458;BME280;57919;56.194;95.716;2022-12-07T11:36:01;100665.75;;;-8.74;59.50
70458;BME280;57919;56.194;95.716;2022-12-07T11:46:09;100655.16;;;-8.81;59.06
70458;BME280;57919;56.194;95.716;2022-12-07T11:56:16;100646.22;;;-8.96;59.39
70458;BME280;57919;56.194;95.716;2022-12-07T12:06:19;100658.41;;;-9.01;59.89
70458;BME280;57919;56.194;95.716;2022-12-07T12:27:07;100647.00;;;-9.05;60.02
70458;BME280;57919;56.194;95.716;2022-12-07T13:08:24;100634.19;;;-9.46;59.25
70458;BME280;57919;56.194;95.716;2022-12-07T13:28:40;100666.19;;;-9.63;59.64
70458;BME280;57919;56.194;95.716;2022-12-07T13:38:52;100645.19;;;-9.68;59.80
70458;BME280;57919;56.194;95.716;2022-12-07T13:48:55;100637.44;;;-9.60;60.01
70458;BME280;57919;56.194;95.716;2022-12-07T13:58:57;100654.16;;;-9.52;60.19
70458;BME280;57919;56.194;95.716;2022-12-07T14:09:22;100657.72;;;-9.49;60.84
70458;BME280;57919;56.194;95.716;2022-12-07T14:29:58;100631.31;;;-9.62;61.34
70458;BME280;57919;56.194;95.716;2022-12-07T14:40:01;100617.69;;;-9.40;62.66
70458;BME280;57919;56.194;95.716;2022-12-07T14:50:03;100616.88;;;-9.34;61.30
70458;BME280;57919;56.194;95.716;2022-12-07T15:00:05;100620.53;;;-9.23;61.11
70458;BME280;57919;56.194;95.716;2022-12-07T15:10:23;100604.66;;;-9.35;61.30
70458;BME280;57919;56.194;95.716;2022-12-07T15:20:26;100610.78;;;-9.33;61.63
70458;BME280;57919;56.194;95.716;2022-12-07T15:30:27;100602.88;;;-9.38;61.43
70458;BME280;57919;56.194;95.716;2022-12-07T15:40:29;100608.34;;;-9.21;61.12
70458;BME280;57919;56.194;95.716;2022-12-07T15:50:32;100600.28;;;-9.35;61.42
70458;BME280;57919;56.194;95.716;2022-12-07T16:00:34;100589.72;;;-9.42;61.43
70458;BME280;57919;56.194;95.716;2022-12-07T16:10:36;100578.44;;;-9.35;61.28
70458;BME280;57919;56.194;95.716;2022-12-07T16:20:39;100578.66;;;-9.20;60.71
70458;BME280;57919;56.194;95.716;2022-12-07T16:30:41;100562.91;;;-9.22;60.79
70458;BME280;57919;56.194;95.716;2022-12-07T16:40:43;100583.06;;;-9.16;61.07
70458;BME280;57919;56.194;95.716;2022-12-07T16:50:45;100587.34;;;-9.23;61.51
70458;BME280;57919;56.194;95.716;2022-12-07T17:00:48;100577.78;;;-9.19;61.59
70458;BME280;57919;56.194;95.716;2022-12-07T17:10:50;100548.75;;;-9.37;61.41
70458;BME280;57919;56.194;95.716;2022-12-07T17:20:52;100549.56;;;-9.41;61.34
70458;BME280;57919;56.194;95.716;2022-12-07T17:30:53;100577.63;;;-9.33;61.43
70458;BME280;57919;56.194;95.716;2022-12-07T17:40:55;100600.41;;;-9.27;61.45
70458;BME280;57919;56.194;95.716;2022-12-07T17:51:01;100595.94;;;-9.34;61.66
70458;BME280;57919;56.194;95.716;2022-12-07T18:01:21;100584.47;;;-9.42;61.99
70458;BME280;57919;56.194;95.716;2022-12-07T18:11:23;100599.38;;;-9.37;61.67
70458;BME280;57919;56.194;95.716;2022-12-07T18:21:28;100580.94;;;-9.46;62.23
70458;BME280;57919;56.194;95.716;2022-12-07T18:31:29;100589.56;;;-9.53;62.40
70458;BME280;57919;56.194;95.716;2022-12-07T18:41:32;100602.72;;;-9.49;62.85
70458;BME280;57919;56.194;95.716;2022-12-07T18:51:33;100584.41;;;-9.47;63.03
70458;BME280;57919;56.194;95.716;2022-12-07T19:01:35;100539.84;;;-9.49;63.30
70458;BME280;57919;56.194;95.716;2022-12-07T19:11:38;100560.06;;;-9.40;63.43
70458;BME280;57919;56.194;95.716;2022-12-07T19:21:52;100569.66;;;-9.40;63.66
70458;BME280;57919;56.194;95.716;2022-12-07T19:31:53;100572.19;;;-9.47;63.10
70458;BME280;57919;56.194;95.716;2022-12-07T19:41:56;100589.59;;;-9.50;63.89
70458;BME280;57919;56.194;95.716;2022-12-07T19:52:00;100587.84;;;-9.51;64.21
70458;BME280;57919;56.194;95.716;2022-12-07T20:02:04;100592.09;;;-9.59;63.79
70458;BME280;57919;56.194;95.716;2022-12-07T20:12:08;100567.38;;;-9.78;64.54
70458;BME280;57919;56.194;95.716;2022-12-07T20:22:28;100594.66;;;-9.62;64.58
70458;BME280;57919;56.194;95.716;2022-12-07T20:32:30;100588.53;;;-9.63;64.68
70458;BME280;57919;56.194;95.716;2022-12-07T20:42:32;100578.91;;;-9.64;64.43
70458;BME280;57919;56.194;95.716;2022-12-07T20:52:37;100583.22;;;-9.67;64.65
70458;BME280;57919;56.194;95.716;2022-12-07T21:02:39;100580.63;;;-9.66;64.27
70458;BME280;57919;56.194;95.716;2022-12-07T21:12:41;100586.81;;;-9.61;64.60
70458;BME280;57919;56.194;95.716;2022-12-07T21:22:43;100576.47;;;-9.53;64.67
70458;BME280;57919;56.194;95.716;2022-12-07T21:32:47;100569.34;;;-9.62;64.71
70458;BME280;57919;56.194;95.716;2022-12-07T21:42:52;100573.72;;;-9.62;65.16
70458;BME280;57919;56.194;95.716;2022-12-07T21:52:54;100575.44;;;-9.64;65.45
70458;BME280;57919;56.194;95.716;2022-12-07T22:02:56;100565.47;;;-9.88;65.51
70458;BME280;57919;56.194;95.716;2022-12-07T22:12:59;100587.44;;;-9.77;65.79
70458;BME280;57919;56.194;95.716;2022-12-07T22:23:01;100576.03;;;-9.82;65.30
70458;BME280;57919;56.194;95.716;2022-12-07T22:33:03;100594.19;;;-9.91;65.21
70458;BME280;57919;56.194;95.716;2022-12-07T22:43:05;100612.66;;;-9.82;65.47
70458;BME280;57919;56.194;95.716;2022-12-07T22:53:07;100617.84;;;-9.85;65.10
70458;BME280;57919;56.194;95.716;2022-12-07T23:03:09;100618.84;;;-9.79;65.02
70458;BME280;57919;56.194;95.716;2022-12-07T23:13:13;100622.31;;;-9.80;64.48
70458;BME280;57919;56.194;95.716;2022-12-07T23:23:33;100615.91;;;-9.98;65.02
70458;BME280;57919;56.194;95.716;2022-12-07T23:33:35;100623.75;;;-9.98;65.11
70458;BME280;57919;56.194;95.716;2022-12-07T23:43:38;100619.25;;;-10.07;65.04
70458;BME280;57919;56.194;95.716;2022-12-07T23:53:43;100622.53;;;-10.20;65.10
